sensor_id;sensor_type;location;lat;lon;timestamp;P1;P2;P0
73565;PMS5003;61846;52.970;-3.168;2023-04-24T00:01:39;24;17;
73565;PMS5003;61846;52.970;-3.168;2023-04-24T00:04:05;11;11;
73565;PMS5003;61846;52.970;-3.168;2023-04-24T00:06:31;20;12;
73565;PMS5003;61846;52.970;-3.168;2023-04-24T00:08:57;15;15;
73565;PMS5003;61846;52.970;-3.168;2023-04-24T00:11:22;16;14;
73565;PMS5003;61846;52.970;-3.168;2023-04-24T00:13:48;17;12;
73565;PMS5003;61846;52.970;-3.168;2023-04-24T00:16:13;23;16;
73565;PMS5003;61846;52.970;-3.168;2023-04-24T00:18:39;12;12;
73565;PMS5003;61846;52.970;-3.168;2023-04-24T00:21:04;16;16;
73565;PMS5003;61846;52.970;-3.168;2023-04-24T00:23:29;17;13;
73565;PMS5003;61846;52.970;-3.168;2023-04-24T00:25:55;14;14;
73565;PMS5003;61846;52.970;-3.168;2023-04-24T00:28:21;22;13;
73565;PMS5003;61846;52.970;-3.168;2023-04-24T00:30:46;12;12;
73565;PMS5003;61846;52.970;-3.168;2023-04-24T00:33:11;14;14;
73565;PMS5003;61846;52.970;-3.168;2023-04-24T00:35:37;15;14;
73565;PMS5003;61846;52.970;-3.168;2023-04-24T00:38:03;14;13;
73565;PMS5003;61846;52.970;-3.168;2023-04-24T00:40:28;16;14;
73565;PMS5003;61846;52.970;-3.168;2023-04-24T00:42:53;13;13;
73565;PMS5003;61846;52.970;-3.168;2023-04-24T00:45:18;16;15;
73565;PMS5003;61846;52.970;-3.168;2023-04-24T00:47:44;16;14;
73565;PMS5003;61846;52.970;-3.168;2023-04-24T00:50:09;19;16;
73565;PMS5003;61846;52.970;-3.168;2023-04-24T00:52:34;21;14;
73565;PMS5003;61846;52.970;-3.168;2023-04-24T00:55:00;16;15;
73565;PMS5003;61846;52.970;-3.168;2023-04-24T00:57:26;12;12;
73565;PMS5003;61846;52.970;-3.168;2023-04-24T00:59:51;20;15;
73565;PMS5003;61846;52.970;-3.168;2023-04-24T01:02:17;15;13;
73565;PMS5003;61846;52.970;-3.168;2023-04-24T01:04:43;13;13;
73565;PMS5003;61846;52.970;-3.168;2023-04-24T01:07:08;17;14;
73565;PMS5003;61846;52.970;-3.168;2023-04-24T01:09:33;16;14;
73565;PMS5003;61846;52.970;-3.168;2023-04-24T01:11:59;13;11;
73565;PMS5003;61846;52.970;-3.168;2023-04-24T01:14:24;12;11;
73565;PMS5003;61846;52.970;-3.168;2023-04-24T01:16:50;12;11;
73565;PMS5003;61846;52.970;-3.168;2023-04-24T01:19:15;15;13;
73565;PMS5003;61846;52.970;-3.168;2023-04-24T01:21:41;18;12;
73565;PMS5003;61846;52.970;-3.168;2023-04-24T01:24:06;13;13;
73565;PMS5003;61846;52.970;-3.168;2023-04-24T01:26:32;13;13;
73565;PMS5003;61846;52.970;-3.168;2023-04-24T01:28:57;17;13;
73565;PMS5003;61846;52.970;-3.168;2023-04-24T01:31:22;13;12;
73565;PMS5003;61846;52.970;-3.168;2023-04-24T01:33:47;12;11;
73565;PMS5003;61846;52.970;-3.168;2023-04-24T01:36:13;11;9;
73565;PMS5003;61846;52.970;-3.168;2023-04-24T01:38:38;14;13;
73565;PMS5003;61846;52.970;-3.168;2023-04-24T01:41:04;12;11;
73565;PMS5003;61846;52.970;-3.168;2023-04-24T01:43:29;15;14;
73565;PMS5003;61846;52.970;-3.168;2023-04-24T01:45:54;11;11;
73565;PMS5003;61846;52.970;-3.168;2023-04-24T01:48:20;14;13;
73565;PMS5003;61846;52.970;-3.168;2023-04-24T01:50:45;13;13;
73565;PMS5003;61846;52.970;-3.168;2023-04-24T01:53:11;14;13;
73565;PMS5003;61846;52.970;-3.168;2023-04-24T01:55:36;22;15;
73565;PMS5003;61846;52.970;-3.168;2023-04-24T01:58:02;14;14;
73565;PMS5003;61846;52.970;-3.168;2023-04-24T02:00:28;15;15;
73565;PMS5003;61846;52.970;-3.168;2023-04-24T02:02:53;13;12;
73565;PMS5003;61846;52.970;-3.168;2023-04-24T02:05:18;14;12;
73565;PMS5003;61846;52.970;-3.168;2023-04-24T02:07:44;14;13;
73565;PMS5003;61846;52.970;-3.168;2023-04-24T02:10:10;12;12;
73565;PMS5003;61846;52.970;-3.168;2023-04-24T02:12:35;14;13;
73565;PMS5003;61846;52.970;-3.168;2023-04-24T02:15:00;13;13;
73565;PMS5003;61846;52.970;-3.168;2023-04-24T02:17:26;10;10;
73565;PMS5003;61846;52.970;-3.168;2023-04-24T02:19:51;16;12;
73565;PMS5003;61846;52.970;-3.168;2023-04-24T02:22:17;15;12;
73565;PMS5003;61846;52.970;-3.168;2023-04-24T02:24:42;11;11;
73565;PMS5003;61846;52.970;-3.168;2023-04-24T02:27:08;13;12;
73565;PMS5003;61846;52.970;-3.168;2023-04-24T02:29:34;12;12;
73565;PMS5003;61846;52.970;-3.168;2023-04-24T02:31:59;16;12;
73565;PMS5003;61846;52.970;-3.168;2023-04-24T02:34:25;12;12;
73565;PMS5003;61846;52.970;-3.168;2023-04-24T02:36:50;11;11;
73565;PMS5003;61846;52.970;-3.168;2023-04-24T02:39:15;20;13;
73565;PMS5003;61846;52.970;-3.168;2023-04-24T02:41:40;11;10;
73565;PMS5003;61846;52.970;-3.168;2023-04-24T02:44:06;20;14;
73565;PMS5003;61846;52.970;-3.168;2023-04-24T02:46:31;17;15;
73565;PMS5003;61846;52.970;-3.168;2023-04-24T02:48:57;19;15;
73565;PMS5003;61846;52.970;-3.168;2023-04-24T02:51:22;16;15;
73565;PMS5003;61846;52.970;-3.168;2023-04-24T02:53:48;15;15;
73565;PMS5003;61846;52.970;-3.168;2023-04-24T02:56:14;14;14;
73565;PMS5003;61846;52.970;-3.168;2023-04-24T02:58:39;14;13;
73565;PMS5003;61846;52.970;-3.168;2023-04-24T03:01:05;16;16;
73565;PMS5003;61846;52.970;-3.168;2023-04-24T03:03:30;13;13;
73565;PMS5003;61846;52.970;-3.168;2023-04-24T03:05:56;12;12;
73565;PMS5003;61846;52.970;-3.168;2023-04-24T03:08:21;15;15;
73565;PMS5003;61846;52.970;-3.168;2023-04-24T03:10:46;17;14;
73565;PMS5003;61846;52.970;-3.168;2023-04-24T03:13:12;11;11;
73565;PMS5003;61846;52.970;-3.168;2023-04-24T03:15:37;12;12;
73565;PMS5003;61846;52.970;-3.168;2023-04-24T03:18:03;12;10;
73565;PMS5003;61846;52.970;-3.168;2023-04-24T03:20:28;14;14;
73565;PMS5003;61846;52.970;-3.168;2023-04-24T03:22:54;17;17;
73565;PMS5003;61846;52.970;-3.168;2023-04-24T03:25:20;17;17;
73565;PMS5003;61846;52.970;-3.168;2023-04-24T03:27:45;14;14;
73565;PMS5003;61846;52.970;-3.168;2023-04-24T03:30:11;15;13;
73565;PMS5003;61846;52.970;-3.168;2023-04-24T03:32:36;12;12;
73565;PMS5003;61846;52.970;-3.168;2023-04-24T03:35:01;13;11;
73565;PMS5003;61846;52.970;-3.168;2023-04-24T03:37:26;14;14;
73565;PMS5003;61846;52.970;-3.168;2023-04-24T03:39:52;14;14;
73565;PMS5003;61846;52.970;-3.168;2023-04-24T03:42:17;15;14;
73565;PMS5003;61846;52.970;-3.168;2023-04-24T03:44:43;12;12;
73565;PMS5003;61846;52.970;-3.168;2023-04-24T03:47:08;19;13;
73565;PMS5003;61846;52.970;-3.168;2023-04-24T03:49:34;20;16;
73565;PMS5003;61846;52.970;-3.168;2023-04-24T03:51:59;14;14;
73565;PMS5003;61846;52.970;-3.168;2023-04-24T03:54:24;20;16;
73565;PMS5003;61846;52.970;-3.168;2023-04-24T03:56:50;13;13;
73565;PMS5003;61846;52.970;-3.168;2023-04-24T03:59:15;13;13;
73565;PMS5003;61846;52.970;-3.168;2023-04-24T04:01:40;17;14;
73565;PMS5003;61846;52.970;-3.168;2023-04-24T04:04:06;15;15;
73565;PMS5003;61846;52.970;-3.168;2023-04-24T04:06:31;19;16;
73565;PMS5003;61846;52.970;-3.168;2023-04-24T04:08:57;14;12;
73565;PMS5003;61846;52.970;-3.168;2023-04-24T04:11:22;12;12;
73565;PMS5003;61846;52.970;-3.168;2023-04-24T04:13:48;14;13;
73565;PMS5003;61846;52.970;-3.168;2023-04-24T04:16:13;10;9;
73565;PMS5003;61846;52.970;-3.168;2023-04-24T04:18:38;14;11;
73565;PMS5003;61846;52.970;-3.168;2023-04-24T04:21:04;9;8;
73565;PMS5003;61846;52.970;-3.168;2023-04-24T04:23:30;7;7;
73565;PMS5003;61846;52.970;-3.168;2023-04-24T04:25:56;6;6;
73565;PMS5003;61846;52.970;-3.168;2023-04-24T04:28:21;4;4;
73565;PMS5003;61846;52.970;-3.168;2023-04-24T04:30:46;4;4;
73565;PMS5003;61846;52.970;-3.168;2023-04-24T04:33:11;7;6;
73565;PMS5003;61846;52.970;-3.168;2023-04-24T04:35:37;6;6;
73565;PMS5003;61846;52.970;-3.168;2023-04-24T04:38:03;7;5;
73565;PMS5003;61846;52.970;-3.168;2023-04-24T04:40:28;9;6;
73565;PMS5003;61846;52.970;-3.168;2023-04-24T04:42:53;7;5;
73565;PMS5003;61846;52.970;-3.168;2023-04-24T04:45:19;12;5;
73565;PMS5003;61846;52.970;-3.168;2023-04-24T04:47:44;8;7;
73565;PMS5003;61846;52.970;-3.168;2023-04-24T04:50:10;19;12;
73565;PMS5003;61846;52.970;-3.168;2023-04-24T04:52:36;6;5;
73565;PMS5003;61846;52.970;-3.168;2023-04-24T04:55:01;8;6;
73565;PMS5003;61846;52.970;-3.168;2023-04-24T04:57:27;8;7;
73565;PMS5003;61846;52.970;-3.168;2023-04-24T04:59:52;6;5;
73565;PMS5003;61846;52.970;-3.168;2023-04-24T05:02:18;6;5;
73565;PMS5003;61846;52.970;-3.168;2023-04-24T05:04:44;6;5;
73565;PMS5003;61846;52.970;-3.168;2023-04-24T05:07:09;7;5;
73565;PMS5003;61846;52.970;-3.168;2023-04-24T05:09:35;8;5;
73565;PMS5003;61846;52.970;-3.168;2023-04-24T05:12:01;9;6;
73565;PMS5003;61846;52.970;-3.168;2023-04-24T05:14:26;5;5;
73565;PMS5003;61846;52.970;-3.168;2023-04-24T05:16:52;7;6;
73565;PMS5003;61846;52.970;-3.168;2023-04-24T05:19:17;6;6;
73565;PMS5003;61846;52.970;-3.168;2023-04-24T05:21:43;4;3;
73565;PMS5003;61846;52.970;-3.168;2023-04-24T05:24:08;8;7;
73565;PMS5003;61846;52.970;-3.168;2023-04-24T05:26:34;9;6;
73565;PMS5003;61846;52.970;-3.168;2023-04-24T05:28:59;5;5;
73565;PMS5003;61846;52.970;-3.168;2023-04-24T05:31:25;5;3;
73565;PMS5003;61846;52.970;-3.168;2023-04-24T05:33:51;5;5;
73565;PMS5003;61846;52.970;-3.168;2023-04-24T05:36:16;6;4;
73565;PMS5003;61846;52.970;-3.168;2023-04-24T05:38:42;7;4;
73565;PMS5003;61846;52.970;-3.168;2023-04-24T05:41:08;1;1;
73565;PMS5003;61846;52.970;-3.168;2023-04-24T05:43:33;6;3;
73565;PMS5003;61846;52.970;-3.168;2023-04-24T05:45:59;4;2;
73565;PMS5003;61846;52.970;-3.168;2023-04-24T05:48:25;2;2;
73565;PMS5003;61846;52.970;-3.168;2023-04-24T05:50:50;2;2;
73565;PMS5003;61846;52.970;-3.168;2023-04-24T05:53:16;4;3;
73565;PMS5003;61846;52.970;-3.168;2023-04-24T05:55:41;4;3;
73565;PMS5003;61846;52.970;-3.168;2023-04-24T05:58:07;3;3;
73565;PMS5003;61846;52.970;-3.168;2023-04-24T06:00:34;6;3;
73565;PMS5003;61846;52.970;-3.168;2023-04-24T06:02:59;3;3;
73565;PMS5003;61846;52.970;-3.168;2023-04-24T06:05:24;3;3;
73565;PMS5003;61846;52.970;-3.168;2023-04-24T06:07:50;4;3;
73565;PMS5003;61846;52.970;-3.168;2023-04-24T06:10:15;5;3;
73565;PMS5003;61846;52.970;-3.168;2023-04-24T06:12:41;4;4;
73565;PMS5003;61846;52.970;-3.168;2023-04-24T06:15:07;6;4;
73565;PMS5003;61846;52.970;-3.168;2023-04-24T06:17:32;1;1;
73565;PMS5003;61846;52.970;-3.168;2023-04-24T06:19:58;4;2;
73565;PMS5003;61846;52.970;-3.168;2023-04-24T06:22:24;3;3;
73565;PMS5003;61846;52.970;-3.168;2023-04-24T06:24:49;3;2;
73565;PMS5003;61846;52.970;-3.168;2023-04-24T06:27:15;4;3;
73565;PMS5003;61846;52.970;-3.168;2023-04-24T06:29:40;3;3;
73565;PMS5003;61846;52.970;-3.168;2023-04-24T06:32:06;2;2;
73565;PMS5003;61846;52.970;-3.168;2023-04-24T06:34:32;1;1;
73565;PMS5003;61846;52.970;-3.168;2023-04-24T06:36:57;2;2;
73565;PMS5003;61846;52.970;-3.168;2023-04-24T06:39:23;2;2;
73565;PMS5003;61846;52.970;-3.168;2023-04-24T06:41:49;2;2;
73565;PMS5003;61846;52.970;-3.168;2023-04-24T06:44:15;4;1;
73565;PMS5003;61846;52.970;-3.168;2023-04-24T06:46:40;6;5;
73565;PMS5003;61846;52.970;-3.168;2023-04-24T06:49:06;5;2;
73565;PMS5003;61846;52.970;-3.168;2023-04-24T06:51:32;5;4;
73565;PMS5003;61846;52.970;-3.168;2023-04-24T06:53:57;2;2;
73565;PMS5003;61846;52.970;-3.168;2023-04-24T06:56:23;5;5;
73565;PMS5003;61846;52.970;-3.168;2023-04-24T06:58:48;4;2;
73565;PMS5003;61846;52.970;-3.168;2023-04-24T07:01:14;3;2;
73565;PMS5003;61846;52.970;-3.168;2023-04-24T07:03:40;2;1;
73565;PMS5003;61846;52.970;-3.168;2023-04-24T07:06:06;1;1;
73565;PMS5003;61846;52.970;-3.168;2023-04-24T07:08:31;4;3;
73565;PMS5003;61846;52.970;-3.168;2023-04-24T07:10:56;3;2;
73565;PMS5003;61846;52.970;-3.168;2023-04-24T07:13:22;2;2;
73565;PMS5003;61846;52.970;-3.168;2023-04-24T07:15:48;3;3;
73565;PMS5003;61846;52.970;-3.168;2023-04-24T07:18:13;5;5;
73565;PMS5003;61846;52.970;-3.168;2023-04-24T07:20:39;9;4;
73565;PMS5003;61846;52.970;-3.168;2023-04-24T07:23:05;5;1;
73565;PMS5003;61846;52.970;-3.168;2023-04-24T07:25:30;2;2;
73565;PMS5003;61846;52.970;-3.168;2023-04-24T07:27:56;1;1;
73565;PMS5003;61846;52.970;-3.168;2023-04-24T07:30:21;7;4;
73565;PMS5003;61846;52.970;-3.168;2023-04-24T07:32:47;9;4;
73565;PMS5003;61846;52.970;-3.168;2023-04-24T07:35:12;5;5;
73565;PMS5003;61846;52.970;-3.168;2023-04-24T07:37:38;6;3;
73565;PMS5003;61846;52.970;-3.168;2023-04-24T07:40:04;3;3;
73565;PMS5003;61846;52.970;-3.168;2023-04-24T07:42:29;2;2;
73565;PMS5003;61846;52.970;-3.168;2023-04-24T07:44:55;2;2;
73565;PMS5003;61846;52.970;-3.168;2023-04-24T07:47:21;2;2;
73565;PMS5003;61846;52.970;-3.168;2023-04-24T07:49:46;2;2;
73565;PMS5003;61846;52.970;-3.168;2023-04-24T07:52:12;3;1;
73565;PMS5003;61846;52.970;-3.168;2023-04-24T07:54:37;2;2;
73565;PMS5003;61846;52.970;-3.168;2023-04-24T07:57:03;2;2;
73565;PMS5003;61846;52.970;-3.168;2023-04-24T07:59:28;4;2;
73565;PMS5003;61846;52.970;-3.168;2023-04-24T08:01:54;5;2;
73565;PMS5003;61846;52.970;-3.168;2023-04-24T08:04:20;2;2;
73565;PMS5003;61846;52.970;-3.168;2023-04-24T08:06:46;2;2;
73565;PMS5003;61846;52.970;-3.168;2023-04-24T08:09:11;4;2;
73565;PMS5003;61846;52.970;-3.168;2023-04-24T08:11:37;3;3;
73565;PMS5003;61846;52.970;-3.168;2023-04-24T08:14:02;5;3;
73565;PMS5003;61846;52.970;-3.168;2023-04-24T08:16:28;2;2;
73565;PMS5003;61846;52.970;-3.168;2023-04-24T08:18:54;6;5;
73565;PMS5003;61846;52.970;-3.168;2023-04-24T08:21:19;6;6;
73565;PMS5003;61846;52.970;-3.168;2023-04-24T08:23:45;2;2;
73565;PMS5003;61846;52.970;-3.168;2023-04-24T08:26:11;3;3;
73565;PMS5003;61846;52.970;-3.168;2023-04-24T08:28:36;4;3;
73565;PMS5003;61846;52.970;-3.168;2023-04-24T08:31:02;3;3;
73565;PMS5003;61846;52.970;-3.168;2023-04-24T08:33:27;4;4;
73565;PMS5003;61846;52.970;-3.168;2023-04-24T08:35:53;9;2;
73565;PMS5003;61846;52.970;-3.168;2023-04-24T08:38:19;3;3;
73565;PMS5003;61846;52.970;-3.168;2023-04-24T08:40:44;6;3;
73565;PMS5003;61846;52.970;-3.168;2023-04-24T08:43:10;6;2;
73565;PMS5003;61846;52.970;-3.168;2023-04-24T08:45:35;4;2;
73565;PMS5003;61846;52.970;-3.168;2023-04-24T08:48:00;7;2;
73565;PMS5003;61846;52.970;-3.168;2023-04-24T08:50:26;4;2;
73565;PMS5003;61846;52.970;-3.168;2023-04-24T08:52:52;5;4;
73565;PMS5003;61846;52.970;-3.168;2023-04-24T08:55:17;2;2;
73565;PMS5003;61846;52.970;-3.168;2023-04-24T08:57:44;5;4;
73565;PMS5003;61846;52.970;-3.168;2023-04-24T09:00:09;7;1;
73565;PMS5003;61846;52.970;-3.168;2023-04-24T09:02:34;5;5;
73565;PMS5003;61846;52.970;-3.168;2023-04-24T09:04:59;6;4;
73565;PMS5003;61846;52.970;-3.168;2023-04-24T09:07:25;3;3;
73565;PMS5003;61846;52.970;-3.168;2023-04-24T09:09:51;6;4;
73565;PMS5003;61846;52.970;-3.168;2023-04-24T09:12:16;6;5;
73565;PMS5003;61846;52.970;-3.168;2023-04-24T09:14:42;5;4;
73565;PMS5003;61846;52.970;-3.168;2023-04-24T09:17:07;4;4;
73565;PMS5003;61846;52.970;-3.168;2023-04-24T09:19:33;4;4;
73565;PMS5003;61846;52.970;-3.168;2023-04-24T09:21:59;7;4;
73565;PMS5003;61846;52.970;-3.168;2023-04-24T09:24:24;5;5;
73565;PMS5003;61846;52.970;-3.168;2023-04-24T09:26:55;5;5;
73565;PMS5003;61846;52.970;-3.168;2023-04-24T09:29:16;4;4;
73565;PMS5003;61846;52.970;-3.168;2023-04-24T09:31:41;8;6;
73565;PMS5003;61846;52.970;-3.168;2023-04-24T09:34:07;6;5;
73565;PMS5003;61846;52.970;-3.168;2023-04-24T09:36:33;5;5;
73565;PMS5003;61846;52.970;-3.168;2023-04-24T09:38:59;7;6;
73565;PMS5003;61846;52.970;-3.168;2023-04-24T09:41:24;9;9;
73565;PMS5003;61846;52.970;-3.168;2023-04-24T09:43:49;6;5;
73565;PMS5003;61846;52.970;-3.168;2023-04-24T09:46:15;8;8;
73565;PMS5003;61846;52.970;-3.168;2023-04-24T09:48:40;13;10;
73565;PMS5003;61846;52.970;-3.168;2023-04-24T09:51:06;19;9;
73565;PMS5003;61846;52.970;-3.168;2023-04-24T09:53:31;15;12;
73565;PMS5003;61846;52.970;-3.168;2023-04-24T09:55:58;16;13;
73565;PMS5003;61846;52.970;-3.168;2023-04-24T09:58:25;15;13;
73565;PMS5003;61846;52.970;-3.168;2023-04-24T10:00:47;12;10;
73565;PMS5003;61846;52.970;-3.168;2023-04-24T10:03:12;15;12;
73565;PMS5003;61846;52.970;-3.168;2023-04-24T10:05:38;12;12;
73565;PMS5003;61846;52.970;-3.168;2023-04-24T10:08:04;17;17;
73565;PMS5003;61846;52.970;-3.168;2023-04-24T10:10:29;21;15;
73565;PMS5003;61846;52.970;-3.168;2023-04-24T10:12:54;16;14;
73565;PMS5003;61846;52.970;-3.168;2023-04-24T10:15:20;15;14;
73565;PMS5003;61846;52.970;-3.168;2023-04-24T10:17:46;17;14;
73565;PMS5003;61846;52.970;-3.168;2023-04-24T10:20:12;18;15;
73565;PMS5003;61846;52.970;-3.168;2023-04-24T10:22:37;18;16;
73565;PMS5003;61846;52.970;-3.168;2023-04-24T10:25:03;15;15;
73565;PMS5003;61846;52.970;-3.168;2023-04-24T10:27:28;22;21;
73565;PMS5003;61846;52.970;-3.168;2023-04-24T10:29:54;15;15;
73565;PMS5003;61846;52.970;-3.168;2023-04-24T10:32:19;17;16;
73565;PMS5003;61846;52.970;-3.168;2023-04-24T10:34:45;16;16;
73565;PMS5003;61846;52.970;-3.168;2023-04-24T10:37:11;17;14;
73565;PMS5003;61846;52.970;-3.168;2023-04-24T10:39:36;18;17;
73565;PMS5003;61846;52.970;-3.168;2023-04-24T10:42:02;16;16;
73565;PMS5003;61846;52.970;-3.168;2023-04-24T10:44:27;24;16;
73565;PMS5003;61846;52.970;-3.168;2023-04-24T10:46:53;17;15;
73565;PMS5003;61846;52.970;-3.168;2023-04-24T10:49:19;17;16;
73565;PMS5003;61846;52.970;-3.168;2023-04-24T10:51:46;20;13;
73565;PMS5003;61846;52.970;-3.168;2023-04-24T10:56:34;15;15;
73565;PMS5003;61846;52.970;-3.168;2023-04-24T10:59:00;26;22;
73565;PMS5003;61846;52.970;-3.168;2023-04-24T11:01:26;24;18;
73565;PMS5003;61846;52.970;-3.168;2023-04-24T11:03:53;15;13;
73565;PMS5003;61846;52.970;-3.168;2023-04-24T11:06:16;13;12;
73565;PMS5003;61846;52.970;-3.168;2023-04-24T11:08:43;18;14;
73565;PMS5003;61846;52.970;-3.168;2023-04-24T11:11:10;21;11;
73565;PMS5003;61846;52.970;-3.168;2023-04-24T11:18:23;15;13;
73565;PMS5003;61846;52.970;-3.168;2023-04-24T11:20:48;14;12;
73565;PMS5003;61846;52.970;-3.168;2023-04-24T11:23:13;15;12;
73565;PMS5003;61846;52.970;-3.168;2023-04-24T11:25:39;13;12;
73565;PMS5003;61846;52.970;-3.168;2023-04-24T11:28:05;11;11;
73565;PMS5003;61846;52.970;-3.168;2023-04-24T11:30:30;11;9;
73565;PMS5003;61846;52.970;-3.168;2023-04-24T11:32:56;10;10;
73565;PMS5003;61846;52.970;-3.168;2023-04-24T11:35:21;8;7;
73565;PMS5003;61846;52.970;-3.168;2023-04-24T11:37:46;8;6;
73565;PMS5003;61846;52.970;-3.168;2023-04-24T11:40:12;19;11;
73565;PMS5003;61846;52.970;-3.168;2023-04-24T11:42:37;11;6;
73565;PMS5003;61846;52.970;-3.168;2023-04-24T11:45:06;6;6;
73565;PMS5003;61846;52.970;-3.168;2023-04-24T11:47:28;8;8;
73565;PMS5003;61846;52.970;-3.168;2023-04-24T11:49:53;10;9;
73565;PMS5003;61846;52.970;-3.168;2023-04-24T11:52:19;11;10;
73565;PMS5003;61846;52.970;-3.168;2023-04-24T11:54:48;7;7;
73565;PMS5003;61846;52.970;-3.168;2023-04-24T11:57:09;9;9;
73565;PMS5003;61846;52.970;-3.168;2023-04-24T11:59:36;8;6;
73565;PMS5003;61846;52.970;-3.168;2023-04-24T12:02:00;16;10;
73565;PMS5003;61846;52.970;-3.168;2023-04-24T12:04:25;16;11;
73565;PMS5003;61846;52.970;-3.168;2023-04-24T12:06:59;14;14;
73565;PMS5003;61846;52.970;-3.168;2023-04-24T12:09:17;12;12;
73565;PMS5003;61846;52.970;-3.168;2023-04-24T12:14:10;12;7;
73565;PMS5003;61846;52.970;-3.168;2023-04-24T12:16:34;6;5;
73565;PMS5003;61846;52.970;-3.168;2023-04-24T12:18:59;3;3;
73565;PMS5003;61846;52.970;-3.168;2023-04-24T12:21:25;7;6;
73565;PMS5003;61846;52.970;-3.168;2023-04-24T12:23:50;7;5;
73565;PMS5003;61846;52.970;-3.168;2023-04-24T12:26:16;6;3;
73565;PMS5003;61846;52.970;-3.168;2023-04-24T12:28:41;4;4;
73565;PMS5003;61846;52.970;-3.168;2023-04-24T12:31:07;2;2;
73565;PMS5003;61846;52.970;-3.168;2023-04-24T12:33:33;6;4;
73565;PMS5003;61846;52.970;-3.168;2023-04-24T12:35:58;7;6;
73565;PMS5003;61846;52.970;-3.168;2023-04-24T12:38:24;6;6;
73565;PMS5003;61846;52.970;-3.168;2023-04-24T12:41:00;8;8;
73565;PMS5003;61846;52.970;-3.168;2023-04-24T12:43:15;10;8;
73565;PMS5003;61846;52.970;-3.168;2023-04-24T12:45:40;9;7;
73565;PMS5003;61846;52.970;-3.168;2023-04-24T12:48:06;6;6;
73565;PMS5003;61846;52.970;-3.168;2023-04-24T12:50:31;10;8;
73565;PMS5003;61846;52.970;-3.168;2023-04-24T12:52:56;6;4;
73565;PMS5003;61846;52.970;-3.168;2023-04-24T12:55:22;7;7;
73565;PMS5003;61846;52.970;-3.168;2023-04-24T12:57:47;7;4;
73565;PMS5003;61846;52.970;-3.168;2023-04-24T13:00:13;7;7;
73565;PMS5003;61846;52.970;-3.168;2023-04-24T13:02:38;8;7;
73565;PMS5003;61846;52.970;-3.168;2023-04-24T13:05:04;8;4;
73565;PMS5003;61846;52.970;-3.168;2023-04-24T13:07:29;9;6;
73565;PMS5003;61846;52.970;-3.168;2023-04-24T13:09:55;9;6;
73565;PMS5003;61846;52.970;-3.168;2023-04-24T13:12:20;5;5;
73565;PMS5003;61846;52.970;-3.168;2023-04-24T13:14:46;11;3;
73565;PMS5003;61846;52.970;-3.168;2023-04-24T13:17:11;4;4;
73565;PMS5003;61846;52.970;-3.168;2023-04-24T13:19:37;8;5;
73565;PMS5003;61846;52.970;-3.168;2023-04-24T13:22:02;6;6;
73565;PMS5003;61846;52.970;-3.168;2023-04-24T13:24:28;7;6;
73565;PMS5003;61846;52.970;-3.168;2023-04-24T13:26:54;6;6;
73565;PMS5003;61846;52.970;-3.168;2023-04-24T13:29:18;7;7;
73565;PMS5003;61846;52.970;-3.168;2023-04-24T13:31:44;7;7;
73565;PMS5003;61846;52.970;-3.168;2023-04-24T13:34:09;8;8;
73565;PMS5003;61846;52.970;-3.168;2023-04-24T13:36:35;17;11;
73565;PMS5003;61846;52.970;-3.168;2023-04-24T13:39:00;9;6;
73565;PMS5003;61846;52.970;-3.168;2023-04-24T13:41:26;8;8;
73565;PMS5003;61846;52.970;-3.168;2023-04-24T13:43:51;12;7;
73565;PMS5003;61846;52.970;-3.168;2023-04-24T13:46:16;19;10;
73565;PMS5003;61846;52.970;-3.168;2023-04-24T13:48:42;9;9;
73565;PMS5003;61846;52.970;-3.168;2023-04-24T13:51:07;8;7;
73565;PMS5003;61846;52.970;-3.168;2023-04-24T13:53:32;12;6;
73565;PMS5003;61846;52.970;-3.168;2023-04-24T13:55:58;14;8;
73565;PMS5003;61846;52.970;-3.168;2023-04-24T13:58:24;6;6;
73565;PMS5003;61846;52.970;-3.168;2023-04-24T14:00:49;9;8;
73565;PMS5003;61846;52.970;-3.168;2023-04-24T14:03:14;8;8;
73565;PMS5003;61846;52.970;-3.168;2023-04-24T14:05:40;7;7;
73565;PMS5003;61846;52.970;-3.168;2023-04-24T14:08:06;10;7;
73565;PMS5003;61846;52.970;-3.168;2023-04-24T14:10:31;7;7;
73565;PMS5003;61846;52.970;-3.168;2023-04-24T14:12:57;18;8;
73565;PMS5003;61846;52.970;-3.168;2023-04-24T14:15:22;14;6;
73565;PMS5003;61846;52.970;-3.168;2023-04-24T14:17:48;11;9;
73565;PMS5003;61846;52.970;-3.168;2023-04-24T14:20:14;8;8;
73565;PMS5003;61846;52.970;-3.168;2023-04-24T14:22:39;6;6;
73565;PMS5003;61846;52.970;-3.168;2023-04-24T14:25:05;9;5;
73565;PMS5003;61846;52.970;-3.168;2023-04-24T14:27:30;8;6;
73565;PMS5003;61846;52.970;-3.168;2023-04-24T14:29:56;5;4;
73565;PMS5003;61846;52.970;-3.168;2023-04-24T14:32:21;12;6;
73565;PMS5003;61846;52.970;-3.168;2023-04-24T14:34:46;6;6;
73565;PMS5003;61846;52.970;-3.168;2023-04-24T14:37:12;6;6;
73565;PMS5003;61846;52.970;-3.168;2023-04-24T14:39:38;11;8;
73565;PMS5003;61846;52.970;-3.168;2023-04-24T14:42:03;7;6;
73565;PMS5003;61846;52.970;-3.168;2023-04-24T14:44:28;8;8;
73565;PMS5003;61846;52.970;-3.168;2023-04-24T14:46:54;10;7;
73565;PMS5003;61846;52.970;-3.168;2023-04-24T14:49:19;7;5;
73565;PMS5003;61846;52.970;-3.168;2023-04-24T14:51:45;8;8;
73565;PMS5003;61846;52.970;-3.168;2023-04-24T14:54:10;9;9;
73565;PMS5003;61846;52.970;-3.168;2023-04-24T14:56:36;8;5;
73565;PMS5003;61846;52.970;-3.168;2023-04-24T14:59:01;10;8;
73565;PMS5003;61846;52.970;-3.168;2023-04-24T15:01:27;11;7;
73565;PMS5003;61846;52.970;-3.168;2023-04-24T15:03:52;14;10;
73565;PMS5003;61846;52.970;-3.168;2023-04-24T15:06:17;11;10;
73565;PMS5003;61846;52.970;-3.168;2023-04-24T15:08:43;8;7;
73565;PMS5003;61846;52.970;-3.168;2023-04-24T15:11:08;9;8;
73565;PMS5003;61846;52.970;-3.168;2023-04-24T15:13:34;12;11;
73565;PMS5003;61846;52.970;-3.168;2023-04-24T15:15:59;13;13;
73565;PMS5003;61846;52.970;-3.168;2023-04-24T15:18:24;23;12;
73565;PMS5003;61846;52.970;-3.168;2023-04-24T15:20:49;9;9;
73565;PMS5003;61846;52.970;-3.168;2023-04-24T15:23:15;9;6;
73565;PMS5003;61846;52.970;-3.168;2023-04-24T15:25:41;6;4;
73565;PMS5003;61846;52.970;-3.168;2023-04-24T15:28:06;8;5;
73565;PMS5003;61846;52.970;-3.168;2023-04-24T15:30:32;13;6;
73565;PMS5003;61846;52.970;-3.168;2023-04-24T15:32:59;14;8;
73565;PMS5003;61846;52.970;-3.168;2023-04-24T15:35:23;5;4;
73565;PMS5003;61846;52.970;-3.168;2023-04-24T15:37:49;6;4;
73565;PMS5003;61846;52.970;-3.168;2023-04-24T15:40:15;8;6;
73565;PMS5003;61846;52.970;-3.168;2023-04-24T15:42:41;5;5;
73565;PMS5003;61846;52.970;-3.168;2023-04-24T15:45:06;9;6;
73565;PMS5003;61846;52.970;-3.168;2023-04-24T15:47:31;10;5;
73565;PMS5003;61846;52.970;-3.168;2023-04-24T15:49:57;7;5;
73565;PMS5003;61846;52.970;-3.168;2023-04-24T15:52:22;4;4;
73565;PMS5003;61846;52.970;-3.168;2023-04-24T15:54:48;7;7;
73565;PMS5003;61846;52.970;-3.168;2023-04-24T15:57:13;9;5;
73565;PMS5003;61846;52.970;-3.168;2023-04-24T15:59:39;8;7;
73565;PMS5003;61846;52.970;-3.168;2023-04-24T16:02:04;8;6;
73565;PMS5003;61846;52.970;-3.168;2023-04-24T16:04:30;11;6;
73565;PMS5003;61846;52.970;-3.168;2023-04-24T16:06:56;6;6;
73565;PMS5003;61846;52.970;-3.168;2023-04-24T16:09:21;7;7;
73565;PMS5003;61846;52.970;-3.168;2023-04-24T16:11:46;6;6;
73565;PMS5003;61846;52.970;-3.168;2023-04-24T16:14:12;8;6;
73565;PMS5003;61846;52.970;-3.168;2023-04-24T16:16:37;7;7;